sensor_id;sensor_type;location;lat;lon;timestamp;P1;durP1;ratioP1;P2;durP2;ratioP2
20004;SDS011;69160;45.498;-73.582;2023-09-18T00:00:51;3.30;;;3.00;;
20004;SDS011;69160;45.498;-73.582;2023-09-18T00:03:19;3.63;;;2.97;;
20004;SDS011;69160;45.498;-73.582;2023-09-18T00:05:50;4.30;;;3.37;;
20004;SDS011;69160;45.498;-73.582;2023-09-18T00:08:17;3.87;;;2.83;;
20004;SDS011;69160;45.498;-73.582;2023-09-18T00:10:51;3.60;;;3.10;;
20004;SDS011;69160;45.498;-73.582;2023-09-18T00:13:19;3.10;;;2.80;;
20004;SDS011;69160;45.498;-73.582;2023-09-18T00:15:45;3.53;;;3.23;;
20004;SDS011;69160;45.498;-73.582;2023-09-18T00:18:13;3.60;;;3.03;;
20004;SDS011;69160;45.498;-73.582;2023-09-18T00:20:40;6.13;;;3.17;;
20004;SDS011;69160;45.498;-73.582;2023-09-18T00:23:07;3.80;;;3.00;;
20004;SDS011;69160;45.498;-73.582;2023-09-18T00:25:34;3.53;;;3.20;;
20004;SDS011;69160;45.498;-73.582;2023-09-18T00:28:00;3.30;;;2.97;;
20004;SDS011;69160;45.498;-73.582;2023-09-18T00:30:26;4.70;;;3.50;;
20004;SDS011;69160;45.498;-73.582;2023-09-18T00:32:52;5.17;;;3.43;;
20004;SDS011;69160;45.498;-73.582;2023-09-18T00:35:19;4.00;;;3.33;;
20004;SDS011;69160;45.498;-73.582;2023-09-18T00:37:45;4.03;;;3.23;;
20004;SDS011;69160;45.498;-73.582;2023-09-18T00:40:11;4.60;;;3.60;;
20004;SDS011;69160;45.498;-73.582;2023-09-18T00:42:37;7.33;;;3.80;;
20004;SDS011;69160;45.498;-73.582;2023-09-18T00:45:04;3.50;;;3.20;;
20004;SDS011;69160;45.498;-73.582;2023-09-18T00:47:30;4.40;;;3.40;;
20004;SDS011;69160;45.498;-73.582;2023-09-18T00:49:57;6.37;;;3.40;;
20004;SDS011;69160;45.498;-73.582;2023-09-18T00:52:23;4.30;;;3.13;;
20004;SDS011;69160;45.498;-73.582;2023-09-18T00:54:50;3.97;;;3.30;;
20004;SDS011;69160;45.498;-73.582;2023-09-18T00:57:17;3.73;;;3.33;;
20004;SDS011;69160;45.498;-73.582;2023-09-18T00:59:44;4.17;;;3.60;;
20004;SDS011;69160;45.498;-73.582;2023-09-18T01:02:11;6.87;;;3.37;;
20004;SDS011;69160;45.498;-73.582;2023-09-18T01:04:37;4.17;;;3.07;;
20004;SDS011;69160;45.498;-73.582;2023-09-18T01:07:03;4.30;;;3.53;;
20004;SDS011;69160;45.498;-73.582;2023-09-18T01:09:32;5.00;;;4.00;;
20004;SDS011;69160;45.498;-73.582;2023-09-18T01:12:19;5.20;;;3.50;;
20004;SDS011;69160;45.498;-73.582;2023-09-18T01:14:57;3.80;;;3.50;;
20004;SDS011;69160;45.498;-73.582;2023-09-18T01:17:35;5.23;;;4.00;;
20004;SDS011;69160;45.498;-73.582;2023-09-18T01:20:03;4.37;;;3.10;;
20004;SDS011;69160;45.498;-73.582;2023-09-18T01:22:31;5.80;;;3.50;;
20004;SDS011;69160;45.498;-73.582;2023-09-18T01:24:57;5.30;;;3.43;;
20004;SDS011;69160;45.498;-73.582;2023-09-18T01:27:23;3.80;;;3.17;;
20004;SDS011;69160;45.498;-73.582;2023-09-18T01:29:50;5.50;;;3.80;;
20004;SDS011;69160;45.498;-73.582;2023-09-18T01:32:16;4.20;;;3.43;;
20004;SDS011;69160;45.498;-73.582;2023-09-18T01:37:11;4.40;;;3.83;;
20004;SDS011;69160;45.498;-73.582;2023-09-18T01:39:38;6.33;;;3.70;;
20004;SDS011;69160;45.498;-73.582;2023-09-18T01:42:05;3.60;;;3.10;;
20004;SDS011;69160;45.498;-73.582;2023-09-18T01:44:35;4.00;;;3.47;;
20004;SDS011;69160;45.498;-73.582;2023-09-18T01:47:05;4.27;;;3.77;;
20004;SDS011;69160;45.498;-73.582;2023-09-18T01:49:39;3.93;;;3.47;;
20004;SDS011;69160;45.498;-73.582;2023-09-18T01:52:06;4.70;;;3.70;;
20004;SDS011;69160;45.498;-73.582;2023-09-18T01:54:33;4.87;;;3.93;;
20004;SDS011;69160;45.498;-73.582;2023-09-18T01:57:00;4.93;;;4.30;;
20004;SDS011;69160;45.498;-73.582;2023-09-18T01:59:27;4.53;;;3.47;;
20004;SDS011;69160;45.498;-73.582;2023-09-18T02:01:53;4.70;;;3.73;;
20004;SDS011;69160;45.498;-73.582;2023-09-18T02:04:20;4.57;;;3.47;;
20004;SDS011;69160;45.498;-73.582;2023-09-18T02:06:47;5.37;;;3.50;;
20004;SDS011;69160;45.498;-73.582;2023-09-18T02:09:14;4.60;;;3.83;;
20004;SDS011;69160;45.498;-73.582;2023-09-18T02:11:42;8.10;;;4.43;;
20004;SDS011;69160;45.498;-73.582;2023-09-18T02:14:10;5.77;;;4.20;;
20004;SDS011;69160;45.498;-73.582;2023-09-18T02:16:37;4.93;;;3.33;;
20004;SDS011;69160;45.498;-73.582;2023-09-18T02:19:09;4.43;;;3.50;;
20004;SDS011;69160;45.498;-73.582;2023-09-18T02:21:36;4.70;;;3.30;;
20004;SDS011;69160;45.498;-73.582;2023-09-18T02:24:03;5.33;;;3.97;;
20004;SDS011;69160;45.498;-73.582;2023-09-18T02:26:29;6.40;;;4.00;;
20004;SDS011;69160;45.498;-73.582;2023-09-18T02:28:58;9.40;;;4.50;;
20004;SDS011;69160;45.498;-73.582;2023-09-18T02:31:26;8.67;;;3.73;;
20004;SDS011;69160;45.498;-73.582;2023-09-18T02:33:52;8.37;;;4.27;;
20004;SDS011;69160;45.498;-73.582;2023-09-18T02:36:19;4.60;;;3.90;;
20004;SDS011;69160;45.498;-73.582;2023-09-18T02:38:45;5.33;;;4.17;;
20004;SDS011;69160;45.498;-73.582;2023-09-18T02:41:11;7.37;;;4.20;;
20004;SDS011;69160;45.498;-73.582;2023-09-18T02:43:37;6.20;;;3.93;;
20004;SDS011;69160;45.498;-73.582;2023-09-18T02:46:04;5.90;;;3.83;;
20004;SDS011;69160;45.498;-73.582;2023-09-18T02:48:30;4.20;;;3.80;;
20004;SDS011;69160;45.498;-73.582;2023-09-18T02:51:00;5.70;;;3.90;;
20004;SDS011;69160;45.498;-73.582;2023-09-18T02:53:27;5.20;;;3.87;;
20004;SDS011;69160;45.498;-73.582;2023-09-18T02:55:55;6.83;;;3.93;;
20004;SDS011;69160;45.498;-73.582;2023-09-18T02:58:22;5.23;;;3.87;;
20004;SDS011;69160;45.498;-73.582;2023-09-18T03:00:51;5.07;;;4.00;;
20004;SDS011;69160;45.498;-73.582;2023-09-18T03:03:22;5.20;;;4.20;;
20004;SDS011;69160;45.498;-73.582;2023-09-18T03:05:48;9.83;;;4.40;;
20004;SDS011;69160;45.498;-73.582;2023-09-18T03:08:14;5.70;;;3.70;;
20004;SDS011;69160;45.498;-73.582;2023-09-18T03:10:42;4.60;;;3.90;;
20004;SDS011;69160;45.498;-73.582;2023-09-18T03:13:09;8.30;;;5.00;;
20004;SDS011;69160;45.498;-73.582;2023-09-18T03:15:36;5.27;;;4.30;;
20004;SDS011;69160;45.498;-73.582;2023-09-18T03:18:03;8.80;;;4.30;;
20004;SDS011;69160;45.498;-73.582;2023-09-18T03:20:31;5.13;;;4.40;;
20004;SDS011;69160;45.498;-73.582;2023-09-18T03:22:57;7.67;;;5.10;;
20004;SDS011;69160;45.498;-73.582;2023-09-18T03:25:25;9.53;;;4.00;;
20004;SDS011;69160;45.498;-73.582;2023-09-18T03:27:52;5.67;;;4.77;;
20004;SDS011;69160;45.498;-73.582;2023-09-18T03:30:20;4.80;;;4.17;;
20004;SDS011;69160;45.498;-73.582;2023-09-18T03:32:47;8.90;;;5.70;;
20004;SDS011;69160;45.498;-73.582;2023-09-18T03:35:13;8.87;;;4.70;;
20004;SDS011;69160;45.498;-73.582;2023-09-18T03:37:44;6.70;;;5.13;;
20004;SDS011;69160;45.498;-73.582;2023-09-18T03:40:10;8.30;;;5.30;;
20004;SDS011;69160;45.498;-73.582;2023-09-18T03:42:37;7.23;;;5.40;;
20004;SDS011;69160;45.498;-73.582;2023-09-18T03:45:04;6.93;;;5.07;;
20004;SDS011;69160;45.498;-73.582;2023-09-18T03:47:31;7.00;;;4.73;;
20004;SDS011;69160;45.498;-73.582;2023-09-18T03:49:59;6.80;;;5.30;;
20004;SDS011;69160;45.498;-73.582;2023-09-18T03:52:25;5.60;;;5.00;;
20004;SDS011;69160;45.498;-73.582;2023-09-18T03:54:52;10.23;;;5.43;;
20004;SDS011;69160;45.498;-73.582;2023-09-18T03:57:19;5.00;;;4.50;;
20004;SDS011;69160;45.498;-73.582;2023-09-18T03:59:45;9.93;;;5.20;;
20004;SDS011;69160;45.498;-73.582;2023-09-18T04:02:11;6.20;;;4.20;;
20004;SDS011;69160;45.498;-73.582;2023-09-18T04:04:37;8.43;;;4.90;;
20004;SDS011;69160;45.498;-73.582;2023-09-18T04:07:07;7.53;;;5.10;;
20004;SDS011;69160;45.498;-73.582;2023-09-18T04:09:33;7.33;;;4.77;;
20004;SDS011;69160;45.498;-73.582;2023-09-18T04:12:03;5.50;;;4.80;;
20004;SDS011;69160;45.498;-73.582;2023-09-18T04:14:33;7.50;;;4.23;;
20004;SDS011;69160;45.498;-73.582;2023-09-18T04:16:59;5.97;;;4.20;;
20004;SDS011;69160;45.498;-73.582;2023-09-18T04:19:28;5.47;;;4.60;;
20004;SDS011;69160;45.498;-73.582;2023-09-18T04:21:55;6.40;;;4.53;;
20004;SDS011;69160;45.498;-73.582;2023-09-18T04:24:22;7.50;;;4.50;;
20004;SDS011;69160;45.498;-73.582;2023-09-18T04:26:48;11.57;;;4.87;;
20004;SDS011;69160;45.498;-73.582;2023-09-18T04:29:18;6.57;;;5.30;;
20004;SDS011;69160;45.498;-73.582;2023-09-18T04:31:45;8.97;;;4.50;;
20004;SDS011;69160;45.498;-73.582;2023-09-18T04:34:12;5.90;;;5.23;;
20004;SDS011;69160;45.498;-73.582;2023-09-18T04:36:38;6.10;;;5.00;;
20004;SDS011;69160;45.498;-73.582;2023-09-18T04:39:05;7.67;;;4.37;;
20004;SDS011;69160;45.498;-73.582;2023-09-18T04:41:31;6.40;;;4.60;;
20004;SDS011;69160;45.498;-73.582;2023-09-18T04:43:59;8.07;;;5.13;;
20004;SDS011;69160;45.498;-73.582;2023-09-18T04:46:25;6.63;;;4.90;;
20004;SDS011;69160;45.498;-73.582;2023-09-18T04:48:51;7.13;;;4.73;;
20004;SDS011;69160;45.498;-73.582;2023-09-18T04:51:17;6.83;;;5.37;;
20004;SDS011;69160;45.498;-73.582;2023-09-18T04:53:43;7.20;;;5.10;;
20004;SDS011;69160;45.498;-73.582;2023-09-18T04:56:09;8.00;;;4.87;;
20004;SDS011;69160;45.498;-73.582;2023-09-18T04:58:36;5.80;;;4.30;;
20004;SDS011;69160;45.498;-73.582;2023-09-18T05:01:03;7.00;;;4.93;;
20004;SDS011;69160;45.498;-73.582;2023-09-18T05:03:33;5.50;;;4.30;;
20004;SDS011;69160;45.498;-73.582;2023-09-18T05:06:00;6.03;;;4.33;;
20004;SDS011;69160;45.498;-73.582;2023-09-18T05:08:26;5.97;;;4.50;;
20004;SDS011;69160;45.498;-73.582;2023-09-18T05:10:52;7.07;;;4.63;;
20004;SDS011;69160;45.498;-73.582;2023-09-18T05:13:18;6.30;;;4.80;;
20004;SDS011;69160;45.498;-73.582;2023-09-18T05:15:44;7.10;;;4.80;;
20004;SDS011;69160;45.498;-73.582;2023-09-18T05:18:11;6.40;;;4.90;;
20004;SDS011;69160;45.498;-73.582;2023-09-18T05:20:39;6.73;;;5.00;;
20004;SDS011;69160;45.498;-73.582;2023-09-18T05:23:05;8.53;;;5.40;;
20004;SDS011;69160;45.498;-73.582;2023-09-18T05:25:32;6.87;;;4.80;;
20004;SDS011;69160;45.498;-73.582;2023-09-18T05:28:03;6.10;;;4.50;;
20004;SDS011;69160;45.498;-73.582;2023-09-18T05:30:34;6.03;;;4.70;;
20004;SDS011;69160;45.498;-73.582;2023-09-18T05:33:03;9.70;;;5.10;;
20004;SDS011;69160;45.498;-73.582;2023-09-18T05:35:31;6.80;;;4.30;;
20004;SDS011;69160;45.498;-73.582;2023-09-18T05:37:58;7.30;;;5.00;;
20004;SDS011;69160;45.498;-73.582;2023-09-18T05:40:25;10.90;;;4.30;;
20004;SDS011;69160;45.498;-73.582;2023-09-18T05:42:55;5.83;;;5.03;;
20004;SDS011;69160;45.498;-73.582;2023-09-18T05:45:22;5.40;;;4.60;;
20004;SDS011;69160;45.498;-73.582;2023-09-18T05:47:49;9.47;;;5.17;;
20004;SDS011;69160;45.498;-73.582;2023-09-18T05:50:15;7.10;;;4.30;;
20004;SDS011;69160;45.498;-73.582;2023-09-18T05:52:42;6.77;;;5.10;;
20004;SDS011;69160;45.498;-73.582;2023-09-18T05:55:09;6.20;;;5.30;;
20004;SDS011;69160;45.498;-73.582;2023-09-18T05:57:36;6.67;;;4.40;;
20004;SDS011;69160;45.498;-73.582;2023-09-18T06:00:02;6.60;;;5.00;;
20004;SDS011;69160;45.498;-73.582;2023-09-18T06:02:30;8.10;;;5.13;;
20004;SDS011;69160;45.498;-73.582;2023-09-18T06:04:57;4.70;;;4.20;;
20004;SDS011;69160;45.498;-73.582;2023-09-18T06:07:25;5.67;;;4.43;;
20004;SDS011;69160;45.498;-73.582;2023-09-18T06:09:52;6.20;;;4.53;;
20004;SDS011;69160;45.498;-73.582;2023-09-18T06:12:18;4.90;;;4.00;;
20004;SDS011;69160;45.498;-73.582;2023-09-18T06:14:46;5.60;;;4.43;;
20004;SDS011;69160;45.498;-73.582;2023-09-18T06:17:13;7.23;;;3.87;;
20004;SDS011;69160;45.498;-73.582;2023-09-18T06:19:40;7.93;;;3.97;;
20004;SDS011;69160;45.498;-73.582;2023-09-18T06:22:07;6.63;;;4.40;;
20004;SDS011;69160;45.498;-73.582;2023-09-18T06:24:34;4.83;;;4.30;;
20004;SDS011;69160;45.498;-73.582;2023-09-18T06:27:00;5.47;;;4.47;;
20004;SDS011;69160;45.498;-73.582;2023-09-18T06:29:27;5.93;;;4.63;;
20004;SDS011;69160;45.498;-73.582;2023-09-18T06:31:53;6.17;;;4.47;;
20004;SDS011;69160;45.498;-73.582;2023-09-18T06:34:19;6.17;;;4.43;;
20004;SDS011;69160;45.498;-73.582;2023-09-18T06:36:45;6.10;;;4.90;;
20004;SDS011;69160;45.498;-73.582;2023-09-18T06:39:11;5.37;;;4.20;;
20004;SDS011;69160;45.498;-73.582;2023-09-18T06:41:37;5.47;;;4.10;;
20004;SDS011;69160;45.498;-73.582;2023-09-18T06:44:03;7.00;;;4.93;;
20004;SDS011;69160;45.498;-73.582;2023-09-18T06:46:30;8.50;;;4.40;;
20004;SDS011;69160;45.498;-73.582;2023-09-18T06:48:56;6.67;;;4.90;;
20004;SDS011;69160;45.498;-73.582;2023-09-18T06:51:28;4.23;;;3.83;;
20004;SDS011;69160;45.498;-73.582;2023-09-18T06:53:54;6.53;;;4.60;;
20004;SDS011;69160;45.498;-73.582;2023-09-18T06:56:23;6.70;;;4.13;;
20004;SDS011;69160;45.498;-73.582;2023-09-18T06:58:52;6.30;;;4.33;;
20004;SDS011;69160;45.498;-73.582;2023-09-18T07:01:18;5.93;;;4.30;;
20004;SDS011;69160;45.498;-73.582;2023-09-18T07:03:45;7.50;;;4.23;;
20004;SDS011;69160;45.498;-73.582;2023-09-18T07:06:15;4.77;;;3.87;;
20004;SDS011;69160;45.498;-73.582;2023-09-18T07:08:43;7.00;;;4.20;;
20004;SDS011;69160;45.498;-73.582;2023-09-18T07:11:10;5.20;;;4.27;;
20004;SDS011;69160;45.498;-73.582;2023-09-18T07:13:37;5.30;;;4.23;;
20004;SDS011;69160;45.498;-73.582;2023-09-18T07:16:03;6.10;;;4.70;;
20004;SDS011;69160;45.498;-73.582;2023-09-18T07:18:31;5.43;;;4.70;;
20004;SDS011;69160;45.498;-73.582;2023-09-18T07:20:58;6.80;;;4.37;;
20004;SDS011;69160;45.498;-73.582;2023-09-18T07:23:24;5.80;;;4.40;;
20004;SDS011;69160;45.498;-73.582;2023-09-18T07:25:50;4.80;;;4.07;;
20004;SDS011;69160;45.498;-73.582;2023-09-18T07:28:16;8.03;;;4.80;;
20004;SDS011;69160;45.498;-73.582;2023-09-18T07:30:44;5.80;;;4.13;;
20004;SDS011;69160;45.498;-73.582;2023-09-18T07:33:11;7.10;;;4.50;;
20004;SDS011;69160;45.498;-73.582;2023-09-18T07:35:38;5.20;;;4.30;;
20004;SDS011;69160;45.498;-73.582;2023-09-18T07:38:04;5.57;;;4.30;;
20004;SDS011;69160;45.498;-73.582;2023-09-18T07:40:30;6.40;;;3.97;;
20004;SDS011;69160;45.498;-73.582;2023-09-18T07:42:56;7.10;;;4.00;;
20004;SDS011;69160;45.498;-73.582;2023-09-18T07:45:23;7.60;;;4.63;;
20004;SDS011;69160;45.498;-73.582;2023-09-18T07:47:49;7.23;;;4.50;;
20004;SDS011;69160;45.498;-73.582;2023-09-18T07:50:15;8.93;;;4.50;;
20004;SDS011;69160;45.498;-73.582;2023-09-18T07:52:43;5.73;;;4.20;;
20004;SDS011;69160;45.498;-73.582;2023-09-18T07:55:09;4.43;;;3.80;;
20004;SDS011;69160;45.498;-73.582;2023-09-18T07:57:35;5.97;;;4.33;;
20004;SDS011;69160;45.498;-73.582;2023-09-18T08:00:03;9.13;;;4.60;;
20004;SDS011;69160;45.498;-73.582;2023-09-18T08:02:33;5.80;;;4.40;;
20004;SDS011;69160;45.498;-73.582;2023-09-18T08:05:00;5.80;;;4.50;;
20004;SDS011;69160;45.498;-73.582;2023-09-18T08:07:27;6.20;;;4.33;;
20004;SDS011;69160;45.498;-73.582;2023-09-18T08:09:54;7.37;;;4.40;;
20004;SDS011;69160;45.498;-73.582;2023-09-18T08:12:20;5.33;;;4.30;;
20004;SDS011;69160;45.498;-73.582;2023-09-18T08:14:46;4.80;;;4.00;;
20004;SDS011;69160;45.498;-73.582;2023-09-18T08:17:14;5.10;;;3.80;;
20004;SDS011;69160;45.498;-73.582;2023-09-18T08:19:40;5.00;;;4.30;;
20004;SDS011;69160;45.498;-73.582;2023-09-18T08:22:07;6.63;;;4.30;;
20004;SDS011;69160;45.498;-73.582;2023-09-18T08:24:35;6.20;;;4.60;;
20004;SDS011;69160;45.498;-73.582;2023-09-18T08:27:01;5.60;;;4.23;;
20004;SDS011;69160;45.498;-73.582;2023-09-18T08:29:28;7.53;;;4.30;;
20004;SDS011;69160;45.498;-73.582;2023-09-18T08:31:54;7.27;;;4.50;;
20004;SDS011;69160;45.498;-73.582;2023-09-18T08:34:20;4.40;;;3.80;;
20004;SDS011;69160;45.498;-73.582;2023-09-18T08:36:47;4.80;;;4.30;;
20004;SDS011;69160;45.498;-73.582;2023-09-18T08:39:13;6.77;;;4.53;;
20004;SDS011;69160;45.498;-73.582;2023-09-18T08:41:42;5.40;;;4.33;;
20004;SDS011;69160;45.498;-73.582;2023-09-18T08:44:10;6.50;;;4.00;;
20004;SDS011;69160;45.498;-73.582;2023-09-18T08:46:37;7.13;;;4.37;;
20004;SDS011;69160;45.498;-73.582;2023-09-18T08:49:04;4.90;;;4.30;;
20004;SDS011;69160;45.498;-73.582;2023-09-18T08:51:33;5.30;;;4.30;;
20004;SDS011;69160;45.498;-73.582;2023-09-18T08:53:59;5.90;;;4.30;;
20004;SDS011;69160;45.498;-73.582;2023-09-18T08:56:28;5.93;;;4.10;;
20004;SDS011;69160;45.498;-73.582;2023-09-18T08:58:56;5.40;;;4.10;;
20004;SDS011;69160;45.498;-73.582;2023-09-18T09:01:23;5.63;;;4.23;;
20004;SDS011;69160;45.498;-73.582;2023-09-18T09:03:49;5.90;;;3.90;;
20004;SDS011;69160;45.498;-73.582;2023-09-18T09:06:16;5.33;;;4.30;;
20004;SDS011;69160;45.498;-73.582;2023-09-18T09:08:42;8.10;;;5.00;;
20004;SDS011;69160;45.498;-73.582;2023-09-18T09:11:08;5.10;;;4.13;;
20004;SDS011;69160;45.498;-73.582;2023-09-18T09:13:35;5.80;;;4.13;;
20004;SDS011;69160;45.498;-73.582;2023-09-18T09:16:01;4.10;;;3.70;;
20004;SDS011;69160;45.498;-73.582;2023-09-18T09:18:29;9.07;;;4.73;;
20004;SDS011;69160;45.498;-73.582;2023-09-18T09:20:57;5.13;;;4.37;;
20004;SDS011;69160;45.498;-73.582;2023-09-18T09:23:25;8.00;;;4.27;;
20004;SDS011;69160;45.498;-73.582;2023-09-18T09:25:53;8.13;;;4.80;;
20004;SDS011;69160;45.498;-73.582;2023-09-18T09:28:29;6.33;;;4.50;;
20004;SDS011;69160;45.498;-73.582;2023-09-18T09:31:02;5.20;;;3.80;;
20004;SDS011;69160;45.498;-73.582;2023-09-18T09:33:29;4.87;;;4.03;;
20004;SDS011;69160;45.498;-73.582;2023-09-18T09:35:56;5.50;;;4.23;;
20004;SDS011;69160;45.498;-73.582;2023-09-18T09:38:29;6.17;;;4.23;;
20004;SDS011;69160;45.498;-73.582;2023-09-18T09:40:57;4.97;;;4.13;;
20004;SDS011;69160;45.498;-73.582;2023-09-18T09:43:31;4.33;;;3.73;;
20004;SDS011;69160;45.498;-73.582;2023-09-18T09:45:58;6.50;;;4.30;;
20004;SDS011;69160;45.498;-73.582;2023-09-18T09:48:25;5.03;;;4.30;;
20004;SDS011;69160;45.498;-73.582;2023-09-18T09:50:52;3.93;;;3.53;;
20004;SDS011;69160;45.498;-73.582;2023-09-18T09:56:13;6.30;;;4.47;;
20004;SDS011;69160;45.498;-73.582;2023-09-18T09:58:39;6.77;;;4.10;;
20004;SDS011;69160;45.498;-73.582;2023-09-18T10:01:11;6.20;;;4.20;;
20004;SDS011;69160;45.498;-73.582;2023-09-18T10:03:43;7.13;;;4.87;;
20004;SDS011;69160;45.498;-73.582;2023-09-18T10:06:10;7.67;;;3.90;;
20004;SDS011;69160;45.498;-73.582;2023-09-18T10:08:40;5.00;;;4.13;;
20004;SDS011;69160;45.498;-73.582;2023-09-18T10:11:07;6.20;;;4.17;;
20004;SDS011;69160;45.498;-73.582;2023-09-18T10:16:32;5.70;;;4.13;;
20004;SDS011;69160;45.498;-73.582;2023-09-18T10:22:04;5.73;;;3.67;;
20004;SDS011;69160;45.498;-73.582;2023-09-18T10:24:39;4.50;;;3.60;;
20004;SDS011;69160;45.498;-73.582;2023-09-18T10:27:10;5.93;;;4.33;;
20004;SDS011;69160;45.498;-73.582;2023-09-18T10:29:40;4.83;;;4.10;;
20004;SDS011;69160;45.498;-73.582;2023-09-18T10:32:09;5.83;;;4.53;;
20004;SDS011;69160;45.498;-73.582;2023-09-18T10:34:36;6.17;;;4.53;;
20004;SDS011;69160;45.498;-73.582;2023-09-18T10:37:04;4.87;;;3.73;;
20004;SDS011;69160;45.498;-73.582;2023-09-18T10:39:36;7.33;;;4.73;;
20004;SDS011;69160;45.498;-73.582;2023-09-18T10:42:04;5.93;;;4.30;;
20004;SDS011;69160;45.498;-73.582;2023-09-18T10:44:34;8.73;;;4.33;;
20004;SDS011;69160;45.498;-73.582;2023-09-18T10:47:02;6.10;;;4.37;;
20004;SDS011;69160;45.498;-73.582;2023-09-18T10:49:31;5.43;;;4.57;;
20004;SDS011;69160;45.498;-73.582;2023-09-18T10:51:57;15.83;;;4.90;;
20004;SDS011;69160;45.498;-73.582;2023-09-18T10:54:25;7.80;;;4.60;;
20004;SDS011;69160;45.498;-73.582;2023-09-18T10:56:52;8.73;;;4.93;;
20004;SDS011;69160;45.498;-73.582;2023-09-18T10:59:19;6.07;;;4.77;;
20004;SDS011;69160;45.498;-73.582;2023-09-18T11:01:46;9.27;;;4.83;;
20004;SDS011;69160;45.498;-73.582;2023-09-18T11:04:19;4.90;;;4.27;;
20004;SDS011;69160;45.498;-73.582;2023-09-18T11:09:24;8.07;;;4.73;;
20004;SDS011;69160;45.498;-73.582;2023-09-18T11:11:52;5.90;;;4.37;;
20004;SDS011;69160;45.498;-73.582;2023-09-18T11:22:37;10.63;;;5.20;;
20004;SDS011;69160;45.498;-73.582;2023-09-18T11:28:13;6.90;;;4.30;;
20004;SDS011;69160;45.498;-73.582;2023-09-18T11:30:50;7.20;;;4.80;;
20004;SDS011;69160;45.498;-73.582;2023-09-18T11:36:02;7.90;;;4.50;;
20004;SDS011;69160;45.498;-73.582;2023-09-18T11:38:32;8.07;;;4.80;;
20004;SDS011;69160;45.498;-73.582;2023-09-18T11:41:01;7.77;;;4.60;;
20004;SDS011;69160;45.498;-73.582;2023-09-18T11:43:50;5.13;;;4.30;;
20004;SDS011;69160;45.498;-73.582;2023-09-18T11:46:17;5.70;;;3.90;;
20004;SDS011;69160;45.498;-73.582;2023-09-18T11:48:48;7.87;;;3.90;;
20004;SDS011;69160;45.498;-73.582;2023-09-18T11:51:20;10.90;;;4.00;;
20004;SDS011;69160;45.498;-73.582;2023-09-18T11:53:49;6.37;;;3.83;;
20004;SDS011;69160;45.498;-73.582;2023-09-18T11:56:20;4.33;;;3.50;;
20004;SDS011;69160;45.498;-73.582;2023-09-18T11:58:47;4.17;;;3.60;;
20004;SDS011;69160;45.498;-73.582;2023-09-18T12:01:14;8.27;;;4.03;;
20004;SDS011;69160;45.498;-73.582;2023-09-18T12:03:41;4.67;;;3.60;;
20004;SDS011;69160;45.498;-73.582;2023-09-18T12:06:07;7.07;;;4.27;;
20004;SDS011;69160;45.498;-73.582;2023-09-18T12:08:38;6.50;;;4.07;;
20004;SDS011;69160;45.498;-73.582;2023-09-18T12:11:06;5.33;;;4.30;;
20004;SDS011;69160;45.498;-73.582;2023-09-18T12:13:32;28.33;;;9.03;;
20004;SDS011;69160;45.498;-73.582;2023-09-18T12:16:02;27.17;;;9.63;;
